Time;durP1;ratioP1;P1;durP2;ratioP2;P2;SDS_P1;SDS_P2;PMS_P1;PMS_P2;Temp;Humidity;BMP_temperature;BMP_pressure;BME280_temperature;BME280_humidity;BME280_pressure;Samples;Min_cycle;Max_cycle;Signal;HPM_P1;HPM_P2
2023/03/13 00:01:51;;;;;;;21.83;3.95;;;;;;;7.94;100.00;100092.94;5059751;28;20044;-71
2023/03/13 00:04:16;;;;;;;15.65;4.53;;;;;;;7.96;100.00;100091.13;5059294;28;20340;-71
2023/03/13 00:06:42;;;;;;;18.35;4.40;;;;;;;7.96;100.00;100078.06;5059882;28;20052;-71
2023/03/13 00:09:10;;;;;;;22.40;4.43;;;;;;;7.96;100.00;100062.44;5060813;28;20052;-71
2023/03/13 00:11:35;;;;;;;17.65;4.65;;;;;;;7.97;100.00;100067.59;5059568;28;20219;-71
2023/03/13 00:14:02;;;;;;;22.50;4.75;;;;;;;7.99;100.00;100057.09;5060285;28;20056;-71
2023/03/13 00:16:28;;;;;;;13.35;4.53;;;;;;;7.98;100.00;100045.81;5059579;28;20082;-71
2023/03/13 00:18:55;;;;;;;19.65;4.65;;;;;;;7.99;100.00;100041.47;5060557;28;20044;-71
2023/03/13 00:21:23;;;;;;;15.63;4.00;;;;;;;7.99;100.00;100037.06;5059974;28;20319;-71
2023/03/13 00:23:50;;;;;;;13.30;4.30;;;;;;;8.01;100.00;100021.38;5060987;28;20204;-71
2023/03/13 00:26:18;;;;;;;13.85;4.28;;;;;;;8.01;100.00;100019.59;5060358;28;20063;-71
2023/03/13 00:28:44;;;;;;;21.83;4.30;;;;;;;8.02;100.00;100012.63;5060943;28;20139;-71
2023/03/13 00:31:13;;;;;;;14.52;4.13;;;;;;;8.02;100.00;100015.22;5060715;28;20063;-71
2023/03/13 00:33:40;;;;;;;12.80;4.13;;;;;;;8.03;100.00;99996.91;5061299;28;20578;-71
2023/03/13 00:36:09;;;;;;;11.75;3.75;;;;;;;8.04;100.00;99992.53;5064084;28;20530;-71
2023/03/13 00:38:35;;;;;;;14.15;4.55;;;;;;;8.06;100.00;99982.91;5064816;28;20053;-71
2023/03/13 00:41:02;;;;;;;14.15;4.28;;;;;;;8.06;100.00;99975.94;5064736;28;20036;-71
2023/03/13 00:43:28;;;;;;;11.60;4.50;;;;;;;8.07;100.00;99968.94;5064060;28;20045;-71
2023/03/13 00:45:53;;;;;;;15.98;5.00;;;;;;;8.07;100.00;99961.13;5064470;28;20339;-72
2023/03/13 00:48:19;;;;;;;15.98;4.72;;;;;;;8.08;100.00;99965.44;5064416;28;20044;-72
2023/03/13 00:50:44;;;;;;;6.93;4.53;;;;;;;8.08;100.00;99955.84;5064403;28;20240;-72
2023/03/13 00:53:10;;;;;;;12.05;5.35;;;;;;;8.11;100.00;99961.81;5064584;28;20044;-72
2023/03/13 00:55:35;;;;;;;15.52;5.05;;;;;;;8.11;100.00;99941.81;5063547;28;20040;-72
2023/03/13 00:58:00;;;;;;;10.55;5.40;;;;;;;8.13;100.00;99942.59;5063857;28;20041;-72
2023/03/13 01:00:26;;;;;;;14.23;5.75;;;;;;;8.15;100.00;99937.28;5063865;28;20076;-72
2023/03/13 01:02:51;;;;;;;11.30;5.68;;;;;;;8.16;100.00;99926.78;5064276;28;20041;-72
2023/03/13 01:05:17;;;;;;;19.67;6.60;;;;;;;8.17;100.00;99912.84;5063906;28;20041;-72
2023/03/13 01:07:42;;;;;;;15.15;5.93;;;;;;;8.19;100.00;99908.41;5065235;28;20044;-72
2023/03/13 01:10:08;;;;;;;10.98;6.88;;;;;;;8.20;100.00;99925.75;5064425;28;20104;-72
2023/03/13 01:12:33;;;;;;;18.85;7.55;;;;;;;8.22;100.00;99910.03;5063945;28;20045;-72
2023/03/13 01:14:59;;;;;;;17.17;7.32;;;;;;;8.22;100.00;99900.47;5063759;28;20051;-72
2023/03/13 01:17:24;;;;;;;11.77;7.05;;;;;;;8.23;100.00;99898.69;5063211;28;20263;-72
2023/03/13 01:19:49;;;;;;;14.70;6.60;;;;;;;8.24;100.00;99882.09;5063803;28;20339;-72
2023/03/13 01:22:15;;;;;;;14.80;7.00;;;;;;;8.25;100.00;99883.81;5063160;28;20043;-72
2023/03/13 01:24:40;;;;;;;18.25;8.38;;;;;;;8.26;100.00;99870.69;5063506;28;20287;-72
2023/03/13 01:27:05;;;;;;;20.02;8.65;;;;;;;8.29;100.00;99874.06;5064038;28;20260;-72
2023/03/13 01:29:31;;;;;;;24.42;9.48;;;;;;;8.31;100.00;99877.47;5063435;28;20051;-72
2023/03/13 01:31:56;;;;;;;17.13;8.73;;;;;;;8.32;100.00;99871.34;5045844;28;20035;-72
2023/03/13 01:34:21;;;;;;;16.60;8.55;;;;;;;8.32;100.00;99863.50;5063436;28;20263;-72
2023/03/13 01:44:05;;;;;;;21.85;10.02;;;;;;;8.40;100.00;99848.31;5058333;28;20048;-72
2023/03/13 01:46:30;;;;;;;16.75;8.70;;;;;;;8.41;100.00;99836.97;5052455;28;20384;-72
2023/03/13 01:49:32;;;;;;;27.65;10.40;;;;;;;8.41;100.00;99821.31;5062772;28;20375;-72
2023/03/13 01:52:02;;;;;;;25.98;10.85;;;;;;;8.42;100.00;99818.69;5030774;28;20049;-72
2023/03/13 01:54:39;;;;;;;19.63;9.52;;;;;;;8.44;100.00;99822.06;5062438;28;20303;-72
2023/03/13 01:57:26;;;;;;;20.88;10.13;;;;;;;8.47;100.00;99805.41;5062838;28;20041;-72
2023/03/13 01:59:57;;;;;;;;;;;;;;;8.48;100.00;99793.19;5063183;28;20061;-72
2023/03/13 02:02:24;;;;;;;25.20;9.82;;;;;;;8.48;100.00;99794.06;5062643;28;19909;-72
2023/03/13 02:04:56;;;;;;;19.38;9.65;;;;;;;8.49;100.00;99790.50;5063201;28;20040;-72
2023/03/13 02:07:28;;;;;;;21.17;10.40;;;;;;;8.52;100.00;99789.53;5062572;28;20051;-72
2023/03/13 02:09:55;;;;;;;23.35;9.95;;;;;;;8.53;100.00;99792.06;5063121;28;20021;-71
2023/03/13 02:12:33;;;;;;;19.73;9.55;;;;;;;8.55;100.00;99779.78;5062723;28;20392;-71
2023/03/13 02:15:01;;;;;;;19.88;9.40;;;;;;;8.60;100.00;99777.81;5062429;28;20025;-71
2023/03/13 02:17:29;;;;;;;17.90;9.48;;;;;;;8.63;100.00;99780.25;5061849;28;20365;-71
2023/03/13 02:19:54;;;;;;;17.27;8.93;;;;;;;8.64;100.00;99774.13;5062457;28;20040;-71
2023/03/13 02:22:44;;;;;;;20.00;9.52;;;;;;;8.67;100.00;99767.03;5062313;28;20096;-72
2023/03/13 02:25:22;;;;;;;22.88;9.38;;;;;;;8.70;100.00;99777.34;5042694;28;20064;-72
2023/03/13 02:27:58;;;;;;;19.58;9.60;;;;;;;8.73;100.00;99777.16;5051083;28;20090;-72
2023/03/13 02:30:24;;;;;;;20.60;9.32;;;;;;;8.75;100.00;99763.13;5061519;28;20045;-72
2023/03/13 02:32:49;;;;;;;19.73;9.30;;;;;;;8.79;100.00;99787.31;5061018;28;20168;-72
2023/03/13 02:35:18;;;;;;;20.02;9.88;;;;;;;8.81;100.00;99767.19;5061638;28;20074;-72
2023/03/13 02:37:49;;;;;;;17.63;9.13;;;;;;;8.84;100.00;99761.81;5061881;28;20025;-72
2023/03/13 02:40:25;;;;;;;25.55;9.80;;;;;;;8.86;100.00;99766.94;5062263;28;20075;-72
2023/03/13 02:42:53;;;;;;;20.38;9.27;;;;;;;8.87;100.00;99771.28;5062027;28;20039;-71
2023/03/13 02:45:18;;;;;;;19.20;9.97;;;;;;;8.93;100.00;99758.75;5061755;28;20041;-71
2023/03/13 02:47:44;;;;;;;19.67;9.55;;;;;;;8.99;100.00;99778.47;5061628;28;20311;-71
2023/03/13 02:50:11;;;;;;;21.52;10.43;;;;;;;9.01;100.00;99758.34;5062409;28;20056;-71
2023/03/13 02:52:42;;;;;;;18.48;11.77;;;;;;;9.03;100.00;99761.72;5061970;28;20036;-71
2023/03/13 02:55:13;;;;;;;25.42;12.27;;;;;;;9.03;100.00;99753.91;5072101;28;20070;-71
2023/03/13 02:57:38;;;;;;;23.58;11.88;;;;;;;9.08;100.00;99740.59;5071045;28;20037;-71
2023/03/13 03:00:06;;;;;;;17.35;10.50;;;;;;;9.11;100.00;99738.66;5061594;28;20095;-71
2023/03/13 03:02:31;;;;;;;24.73;11.35;;;;;;;9.13;100.00;99731.59;5061505;28;20041;-71
2023/03/13 03:04:57;;;;;;;15.07;10.40;;;;;;;9.19;100.00;99746.13;5054007;28;20116;-71
2023/03/13 03:07:22;;;;;;;17.02;9.43;;;;;;;9.22;100.00;99738.97;5048326;28;20036;-71
2023/03/13 03:09:48;;;;;;;14.48;8.68;;;;;;;9.26;100.00;99725.72;5061594;28;20057;-71
2023/03/13 03:12:13;;;;;;;11.50;8.35;;;;;;;9.28;100.00;99726.47;5061661;28;20052;-72
2023/03/13 03:14:39;;;;;;;12.82;7.75;;;;;;;9.28;100.00;99726.47;5061333;28;20051;-72
2023/03/13 03:17:04;;;;;;;16.98;8.00;;;;;;;9.31;100.00;99739.38;5060891;28;20037;-71
2023/03/13 03:19:29;;;;;;;16.95;7.28;;;;;;;9.31;100.00;99737.59;5060984;28;20096;-71
2023/03/13 03:21:55;;;;;;;14.88;7.57;;;;;;;9.32;100.00;99723.63;5061444;28;20039;-71
2023/03/13 03:24:20;;;;;;;10.95;7.47;;;;;;;9.36;100.00;99732.16;5058703;28;20087;-73
2023/03/13 03:26:45;;;;;;;17.17;7.90;;;;;;;9.39;100.00;99730.22;5058221;28;20029;-73
2023/03/13 03:29:11;;;;;;;14.63;8.13;;;;;;;9.45;100.00;99720.38;5057827;28;20228;-73
2023/03/13 03:31:36;;;;;;;11.70;7.68;;;;;;;9.48;100.00;99733.25;5057177;28;20044;-73
2023/03/13 03:34:02;;;;;;;12.23;8.02;;;;;;;9.52;100.00;99729.56;5057469;28;20411;-73
2023/03/13 03:36:28;;;;;;;13.52;7.72;;;;;;;9.52;100.00;99716.50;5057033;28;20036;-73
2023/03/13 03:38:53;;;;;;;15.55;7.60;;;;;;;9.53;100.00;99726.88;5056437;28;20037;-73
2023/03/13 03:41:18;;;;;;;15.55;8.25;;;;;;;9.52;100.00;99716.50;5057485;28;20375;-73
2023/03/13 03:43:46;;;;;;;13.82;7.38;;;;;;;9.56;100.00;99708.41;5057992;28;20036;-73
2023/03/13 03:46:12;;;;;;;12.10;8.07;;;;;;;9.57;100.00;99709.25;5057358;28;20040;-73
2023/03/13 03:48:38;;;;;;;15.70;7.88;;;;;;;9.60;100.00;99703.84;5056804;28;20028;-73
2023/03/13 03:51:04;;;;;;;12.75;7.43;;;;;;;9.60;100.00;99711.69;5057828;28;20092;-73
2023/03/13 03:53:29;;;;;;;13.82;7.03;;;;;;;9.61;100.00;99702.94;5057129;28;20403;-73
2023/03/13 03:55:55;;;;;;;11.40;7.20;;;;;;;9.62;100.00;99704.59;5057230;28;20051;-73
2023/03/13 03:58:20;;;;;;;13.60;7.82;;;;;;;9.61;100.00;99693.31;5056507;28;20029;-73
2023/03/13 04:00:46;;;;;;;8.88;7.13;;;;;;;9.60;100.00;99694.25;5057076;28;20056;-73
2023/03/13 04:03:12;;;;;;;15.88;8.05;;;;;;;9.61;100.00;99692.47;5057339;28;20068;-73
2023/03/13 04:05:38;;;;;;;10.45;6.43;;;;;;;9.61;100.00;99677.63;5056816;28;20049;-73
2023/03/13 04:08:04;;;;;;;15.82;6.80;;;;;;;9.62;100.00;99686.28;5056668;28;20048;-73
2023/03/13 04:10:30;;;;;;;13.73;6.97;;;;;;;9.63;100.00;99695.84;5056770;28;20056;-73
2023/03/13 04:12:55;;;;;;;11.00;7.05;;;;;;;9.65;100.00;99680.91;5057690;28;20099;-73
2023/03/13 04:15:20;;;;;;;10.20;6.55;;;;;;;9.70;100.00;99680.66;5056447;28;20037;-73
2023/03/13 04:17:46;;;;;;;17.65;7.43;;;;;;;9.70;100.00;99668.44;5057304;28;20329;-73
2023/03/13 04:20:13;;;;;;;13.93;8.13;;;;;;;9.71;100.00;99682.34;5057476;28;20340;-73
2023/03/13 04:22:39;;;;;;;14.35;7.75;;;;;;;9.72;100.00;99679.66;5039057;28;20355;-73
2023/03/13 04:25:05;;;;;;;16.00;7.60;;;;;;;9.72;100.00;99673.59;5057471;28;20041;-73
2023/03/13 04:27:31;;;;;;;13.15;7.60;;;;;;;9.74;100.00;99680.41;5056910;28;20050;-73
2023/03/13 04:29:57;;;;;;;12.85;7.40;;;;;;;9.76;100.00;99669.84;5057435;28;20028;-73
2023/03/13 04:32:22;;;;;;;15.00;7.80;;;;;;;9.79;100.00;99680.16;5056906;28;20240;-73
2023/03/13 04:34:48;;;;;;;15.63;8.23;;;;;;;9.78;100.00;99674.06;5056830;28;20048;-73
2023/03/13 04:37:13;;;;;;;11.80;7.70;;;;;;;9.79;100.00;99685.38;5057104;28;20298;-73
2023/03/13 04:39:38;;;;;;;14.02;7.85;;;;;;;9.79;100.00;99678.38;5056610;28;20033;-73
2023/03/13 04:42:04;;;;;;;14.43;7.60;;;;;;;9.80;100.00;99666.13;5057349;28;20082;-73
2023/03/13 04:44:29;;;;;;;14.32;7.10;;;;;;;9.81;100.00;99665.22;5056180;28;20049;-73
2023/03/13 04:46:55;;;;;;;13.27;6.88;;;;;;;9.82;100.00;99652.97;5057332;28;20136;-73
2023/03/13 04:49:20;;;;;;;11.63;6.60;;;;;;;9.80;100.00;99650.44;5056562;28;20045;-73
2023/03/13 04:51:45;;;;;;;15.32;7.00;;;;;;;9.80;100.00;99640.84;5057025;28;20056;-73
2023/03/13 04:54:11;;;;;;;13.63;6.35;;;;;;;9.82;100.00;99645.97;5056720;28;20590;-73
2023/03/13 04:56:37;;;;;;;11.00;6.32;;;;;;;9.83;100.00;99637.22;5056157;28;20103;-73
2023/03/13 04:59:03;;;;;;;15.77;5.65;;;;;;;9.83;100.00;99629.38;5056804;28;20048;-73
2023/03/13 05:01:28;;;;;;;12.35;5.18;;;;;;;9.86;100.00;99641.41;5055916;28;20385;-73
2023/03/13 05:03:54;;;;;;;8.30;5.55;;;;;;;9.86;100.00;99615.25;5056653;28;20045;-73
2023/03/13 05:06:20;;;;;;;13.38;5.63;;;;;;;9.87;100.00;99645.72;5056378;28;20041;-73
2023/03/13 05:08:45;;;;;;;14.57;5.60;;;;;;;9.87;100.00;99624.81;5056802;28;20041;-73
2023/03/13 05:11:11;;;;;;;13.05;5.45;;;;;;;9.88;100.00;99611.66;5057055;28;20107;-73
2023/03/13 05:13:36;;;;;;;17.38;6.47;;;;;;;9.89;100.00;99609.88;5038636;28;20048;-73
2023/03/13 05:16:02;;;;;;;9.85;5.03;;;;;;;9.89;100.00;99618.53;5056231;28;20033;-73
2023/03/13 05:18:27;;;;;;;13.00;5.15;;;;;;;9.90;100.00;99612.41;5056047;28;20049;-73
2023/03/13 05:20:53;;;;;;;11.68;4.20;;;;;;;9.90;100.00;99595.88;5057831;28;20079;-73
2023/03/13 05:23:18;;;;;;;14.55;4.78;;;;;;;9.91;100.00;99590.53;5059703;28;20055;-73
2023/03/13 05:25:43;;;;;;;13.98;4.72;;;;;;;9.95;100.00;99589.44;5059880;28;20041;-73
2023/03/13 05:28:09;;;;;;;6.57;4.07;;;;;;;9.96;100.00;99575.41;5060083;28;20036;-73
2023/03/13 05:30:35;;;;;;;17.85;4.95;;;;;;;9.97;100.00;99584.97;5059100;28;20043;-73
2023/03/13 05:33:00;;;;;;;7.72;3.97;;;;;;;10.00;100.00;99589.16;5059729;28;20060;-73
2023/03/13 05:35:25;;;;;;;10.75;4.07;;;;;;;10.01;100.00;99583.00;5058843;28;20397;-73
2023/03/13 05:37:51;;;;;;;11.93;3.90;;;;;;;10.03;100.00;99570.69;5059944;28;20056;-73
2023/03/13 05:40:16;;;;;;;13.25;3.97;;;;;;;10.04;100.00;99574.13;5059342;28;20049;-73
2023/03/13 05:42:43;;;;;;;7.63;4.05;;;;;;;10.04;100.00;99585.44;5060110;28;20048;-73
2023/03/13 05:45:09;;;;;;;18.98;4.20;;;;;;;10.04;100.00;99590.69;5059180;28;20036;-73
2023/03/13 05:47:35;;;;;;;7.50;3.72;;;;;;;10.03;100.00;99578.53;5059501;28;20048;-73
2023/03/13 05:50:00;;;;;;;9.60;3.67;;;;;;;10.05;100.00;99579.28;5041772;28;20244;-73
2023/03/13 05:52:26;;;;;;;9.20;3.42;;;;;;;10.05;100.00;99570.59;5058708;28;20331;-73
2023/03/13 05:54:51;;;;;;;14.15;3.80;;;;;;;10.04;100.00;99575.00;5059096;28;20049;-73
2023/03/13 05:57:17;;;;;;;10.02;3.88;;;;;;;10.06;100.00;99564.41;5058481;28;20240;-73
2023/03/13 05:59:42;;;;;;;10.05;3.55;;;;;;;10.06;100.00;99567.03;5059205;28;20040;-73
2023/03/13 06:02:08;;;;;;;13.60;3.42;;;;;;;10.07;100.00;99571.34;5059053;28;20033;-73
2023/03/13 06:04:34;;;;;;;14.88;3.63;;;;;;;10.10;100.00;99576.41;5058877;28;20044;-73
2023/03/13 06:06:59;;;;;;;7.82;3.40;;;;;;;10.12;100.00;99579.75;5059655;28;20331;-73
2023/03/13 06:09:24;;;;;;;13.57;3.35;;;;;;;10.13;100.00;99581.44;5058449;28;20055;-73
2023/03/13 06:11:50;;;;;;;10.55;3.60;;;;;;;10.14;100.00;99578.72;5059199;28;20076;-73
2023/03/13 06:14:15;;;;;;;6.60;3.25;;;;;;;10.15;100.00;99592.66;5058406;28;20083;-73
2023/03/13 06:16:41;;;;;;;9.25;3.83;;;;;;;10.16;100.00;99589.09;5058009;28;20345;-73
2023/03/13 06:19:06;;;;;;;10.75;3.75;;;;;;;10.15;100.00;99583.03;5059241;28;20052;-73
2023/03/13 06:21:32;;;;;;;13.70;3.42;;;;;;;10.17;100.00;99591.63;5058193;28;20033;-73
2023/03/13 06:23:57;;;;;;;17.90;4.30;;;;;;;10.18;100.00;99582.00;5059413;28;20052;-73
2023/03/13 06:26:24;;;;;;;12.10;4.03;;;;;;;10.15;100.00;99584.78;5058008;28;20029;-73
2023/03/13 06:28:50;;;;;;;7.25;3.58;;;;;;;10.13;100.00;99598.00;5058764;28;20032;-73
2023/03/13 06:31:15;;;;;;;10.32;3.80;;;;;;;10.10;100.00;99598.16;5057453;28;20053;-73
2023/03/13 06:33:40;;;;;;;13.75;4.50;;;;;;;10.10;100.00;99615.66;5058675;28;20037;-73
2023/03/13 06:36:06;;;;;;;10.20;4.22;;;;;;;10.07;100.00;99590.47;5058168;28;20267;-73
2023/03/13 06:38:32;;;;;;;6.78;3.72;;;;;;;10.07;100.00;99598.34;5058408;28;20224;-73
2023/03/13 06:40:58;;;;;;;10.90;4.35;;;;;;;10.05;100.00;99600.19;5058966;28;20035;-73
2023/03/13 06:43:23;;;;;;;7.18;3.97;;;;;;;10.04;100.00;99600.28;5058188;28;20192;-73
2023/03/13 06:45:49;;;;;;;13.32;5.15;;;;;;;10.03;100.00;99609.91;5058493;28;20233;-74
2023/03/13 06:48:14;;;;;;;17.00;4.88;;;;;;;10.03;100.00;99601.22;5058570;28;20100;-73
2023/03/13 06:50:40;;;;;;;11.18;5.07;;;;;;;10.01;100.00;99590.03;5058153;28;20080;-73
2023/03/13 06:53:06;;;;;;;12.95;4.70;;;;;;;10.01;100.00;99582.19;5058117;28;20061;-73
2023/03/13 06:55:32;;;;;;;11.57;5.32;;;;;;;10.00;100.00;99586.53;5057341;28;20363;-73
2023/03/13 06:57:58;;;;;;;17.73;5.18;;;;;;;9.98;100.00;99576.16;5058125;28;20049;-73
2023/03/13 07:00:24;;;;;;;11.00;4.82;;;;;;;9.97;100.00;99579.72;5057223;28;20372;-73
2023/03/13 07:02:50;;;;;;;12.68;4.80;;;;;;;9.98;100.00;99580.56;5058787;28;20048;-73
2023/03/13 07:05:16;;;;;;;15.75;5.40;;;;;;;9.98;100.00;99586.63;5057288;28;20100;-75
2023/03/13 07:07:42;;;;;;;14.57;5.25;;;;;;;9.96;100.00;99585.03;5057615;28;20380;-73
2023/03/13 07:10:09;;;;;;;10.50;4.65;;;;;;;9.97;100.00;99584.97;5057196;28;20041;-73
2023/03/13 07:12:35;;;;;;;8.35;5.35;;;;;;;9.97;100.00;99587.56;5057592;28;20409;-73
2023/03/13 07:15:00;;;;;;;12.18;5.30;;;;;;;9.98;100.00;99596.25;5057867;28;20104;-73
2023/03/13 07:17:26;;;;;;;15.65;5.35;;;;;;;9.97;100.00;99595.41;5056734;28;20044;-73
2023/03/13 07:19:51;;;;;;;11.30;5.50;;;;;;;9.96;100.00;99572.81;5058303;28;20056;-73
2023/03/13 07:22:16;;;;;;;10.85;5.07;;;;;;;9.97;100.00;99587.56;5057316;28;20040;-73
2023/03/13 07:24:42;;;;;;;16.27;5.15;;;;;;;9.98;100.00;99594.47;5057476;28;20303;-73
2023/03/13 07:27:07;;;;;;;13.10;4.90;;;;;;;9.99;100.00;99606.63;5057075;28;20032;-73
2023/03/13 07:29:33;;;;;;;17.27;5.32;;;;;;;9.99;100.00;99598.78;5053828;28;20059;-73
2023/03/13 07:31:58;;;;;;;16.63;5.28;;;;;;;10.01;100.00;99603.09;5054023;28;20055;-73
2023/03/13 07:34:24;;;;;;;12.70;4.95;;;;;;;10.02;100.00;99589.91;5056079;28;20358;-73
2023/03/13 07:36:49;;;;;;;12.07;5.30;;;;;;;10.03;100.00;99591.59;5055991;28;20055;-73
2023/03/13 07:39:14;;;;;;;10.30;4.95;;;;;;;10.05;100.00;99594.97;5055390;28;20364;-73
2023/03/13 07:41:40;;;;;;;16.23;5.65;;;;;;;10.06;100.00;99590.56;5052489;28;20040;-73
2023/03/13 07:44:06;;;;;;;10.60;4.55;;;;;;;10.06;100.00;99583.59;5054407;28;20044;-73
2023/03/13 07:46:31;;;;;;;11.20;4.63;;;;;;;10.05;100.00;99581.88;5054557;28;20348;-73
2023/03/13 07:48:57;;;;;;;11.75;4.50;;;;;;;10.07;100.00;99580.03;5056734;28;20047;-73
2023/03/13 07:51:24;;;;;;;15.35;4.32;;;;;;;10.07;100.00;99564.31;5050221;28;20036;-73
2023/03/13 07:53:51;;;;;;;8.65;3.35;;;;;;;10.09;100.00;99559.00;5056518;28;20041;-73
2023/03/13 07:56:19;;;;;;;12.30;4.13;;;;;;;10.12;100.00;99572.75;5055907;28;20039;-73
2023/03/13 07:58:44;;;;;;;10.93;3.90;;;;;;;10.16;100.00;99581.25;5054492;28;20354;-73
2023/03/13 08:01:22;;;;;;;11.07;3.15;;;;;;;10.17;100.00;99573.31;5065991;28;20041;-73
2023/03/13 08:03:49;;;;;;;7.05;3.08;;;;;;;10.21;100.00;99560.06;5056072;28;20100;-73
2023/03/13 08:06:18;;;;;;;7.63;3.22;;;;;;;10.25;100.00;99570.25;5059137;28;20103;-73
2023/03/13 08:08:43;;;;;;;11.98;3.70;;;;;;;10.27;100.00;99568.38;5057097;28;20037;-73
2023/03/13 08:11:13;;;;;;;10.80;3.63;;;;;;;10.30;100.00;99555.13;5056327;28;20079;-73
2023/03/13 08:13:40;;;;;;;5.00;3.22;;;;;;;10.30;100.00;99549.06;5055973;28;20107;-73
2023/03/13 08:16:11;;;;;;;11.05;3.33;;;;;;;10.30;100.00;99552.50;5056431;28;20029;-73
2023/03/13 08:18:38;;;;;;;9.13;2.92;;;;;;;10.31;100.00;99550.75;5056538;28;20491;-73
2023/03/13 08:21:06;;;;;;;9.25;3.00;;;;;;;10.31;100.00;99541.13;5057267;28;20232;-73
2023/03/13 08:23:32;;;;;;;9.38;2.85;;;;;;;10.34;100.00;99576.75;5055432;28;20083;-73
2023/03/13 08:26:15;;;;;;;6.25;2.63;;;;;;;10.36;100.00;99527.78;5055924;28;20213;-73
2023/03/13 08:28:42;;;;;;;12.63;2.70;;;;;;;10.40;100.00;99544.97;5053870;28;20044;-73
2023/03/13 08:31:12;;;;;;;11.43;2.30;;;;;;;10.42;100.00;99569.25;5055606;28;20021;-73
2023/03/13 08:33:38;;;;;;;9.60;2.25;;;;;;;10.48;100.00;99516.56;5052603;28;20029;-73
2023/03/13 08:36:16;;;;;;;6.55;2.38;;;;;;;10.52;100.00;99551.25;5055455;28;20025;-73
2023/03/13 08:38:43;;;;;;;4.07;2.13;;;;;;;10.54;100.00;99557.22;5054944;28;20040;-73
2023/03/13 08:41:09;;;;;;;11.05;2.45;;;;;;;10.60;100.00;99550.75;5054909;28;20037;-73
2023/03/13 08:43:35;;;;;;;14.05;2.60;;;;;;;10.60;100.00;99556.00;5054719;28;20154;-73
2023/03/13 08:46:00;;;;;;;5.93;1.90;;;;;;;10.63;100.00;99525.25;5054745;28;20112;-73
2023/03/13 08:48:25;;;;;;;10.68;2.55;;;;;;;10.65;100.00;99540.84;5050337;28;20115;-73
2023/03/13 08:51:06;;;;;;;8.15;2.00;;;;;;;10.70;100.00;99536.19;5051633;28;20036;-73
2023/03/13 08:53:33;;;;;;;7.75;1.88;;;;;;;10.72;100.00;99531.69;5054851;28;20048;-73
2023/03/13 08:55:59;;;;;;;5.97;2.10;;;;;;;10.78;100.00;99523.44;5053074;28;20036;-73
2023/03/13 08:58:24;;;;;;;8.60;2.00;;;;;;;10.82;100.00;99511.81;5050778;28;20352;-73
2023/03/13 09:00:49;;;;;;;7.28;1.92;;;;;;;10.83;100.00;99531.03;5058712;28;20486;-73
2023/03/13 09:03:16;;;;;;;6.97;2.13;;;;;;;10.84;100.00;99523.06;5057827;28;20044;-73
2023/03/13 09:05:41;;;;;;;13.77;2.47;;;;;;;10.86;100.00;99505.47;5058304;28;20083;-73
2023/03/13 09:08:07;;;;;;;10.45;2.15;;;;;;;10.87;100.00;99522.03;5056513;28;20040;-73
2023/03/13 09:10:32;;;;;;;5.78;1.65;;;;;;;10.91;100.00;99524.38;5055975;28;20121;-73
2023/03/13 09:12:58;;;;;;;8.43;2.72;;;;;;;10.97;100.00;99511.81;5060928;28;20041;-73
2023/03/13 09:15:23;;;;;;;8.70;1.85;;;;;;;10.98;100.00;99505.63;5059907;28;20459;-73
2023/03/13 09:17:48;;;;;;;7.68;1.90;;;;;;;11.05;100.00;99494.66;5047113;28;20388;-73
2023/03/13 09:20:14;;;;;;;8.95;2.15;;;;;;;11.09;100.00;99493.53;5058284;28;20028;-73
2023/03/13 09:22:39;;;;;;;3.22;1.50;;;;;;;11.09;100.00;99492.69;5056581;28;20336;-73
2023/03/13 09:25:05;;;;;;;8.93;1.80;;;;;;;11.10;100.00;99497.00;5056595;28;20339;-73
2023/03/13 09:27:31;;;;;;;10.00;2.00;;;;;;;11.09;100.00;99505.78;5058191;28;20045;-73
2023/03/13 09:29:56;;;;;;;6.20;2.03;;;;;;;11.09;100.00;99475.19;5059646;28;20045;-73
2023/03/13 09:32:21;;;;;;;8.27;1.58;;;;;;;11.08;100.00;99475.31;5058148;28;20037;-73
2023/03/13 09:34:47;;;;;;;9.00;1.70;;;;;;;11.07;100.00;99471.81;5041767;28;20036;-73
2023/03/13 09:37:12;;;;;;;7.95;1.80;;;;;;;11.08;100.00;99477.94;5058571;28;20044;-73
2023/03/13 09:39:38;;;;;;;7.20;1.83;;;;;;;11.10;100.00;99453.28;5061027;28;20112;-73
2023/03/13 09:42:16;;;;;;;7.35;1.95;;;;;;;11.15;100.00;99439.88;5043089;28;20037;-73
2023/03/13 09:44:58;;;;;;;6.28;1.67;;;;;;;11.16;100.00;99441.56;5059388;28;20032;-73
2023/03/13 09:47:35;;;;;;;3.20;1.27;;;;;;;11.17;100.00;99448.50;5054362;28;20048;-73
2023/03/13 09:50:26;;;;;;;8.38;1.60;;;;;;;11.18;100.00;99438.84;5058616;28;20033;-73
2023/03/13 09:53:00;;;;;;;6.00;1.63;;;;;;;11.20;100.00;99439.59;5051363;28;20033;-73
2023/03/13 09:55:29;;;;;;;4.78;1.48;;;;;;;11.23;100.00;99452.50;5058413;28;20105;-73
2023/03/13 09:57:58;;;;;;;5.00;1.33;;;;;;;11.28;100.00;99430.28;5058544;28;20043;-73
2023/03/13 10:00:28;;;;;;;7.90;1.80;;;;;;;11.32;100.00;99433.56;5058792;28;20060;-73
2023/03/13 10:03:06;;;;;;;3.95;1.48;;;;;;;11.37;100.00;99444.56;5057991;28;20107;-73
2023/03/13 10:05:32;;;;;;;5.20;1.30;;;;;;;11.45;100.00;99430.94;5038665;28;20052;-73
2023/03/13 10:08:07;;;;;;;5.22;2.25;;;;;;;11.52;100.00;99429.59;5058134;28;20041;-73
2023/03/13 10:10:39;;;;;;;5.00;1.77;;;;;;;11.54;100.00;99443.44;5057653;28;20049;-73
2023/03/13 10:13:18;;;;;;;5.78;1.48;;;;;;;11.56;100.00;99435.47;5059038;28;20359;-73
2023/03/13 10:15:58;;;;;;;3.15;1.02;;;;;;;11.57;100.00;99445.00;5058246;28;20258;-73
2023/03/13 10:18:25;;;;;;;3.67;1.25;;;;;;;11.56;100.00;99438.09;5058548;28;20033;-73
2023/03/13 10:20:58;;;;;;;4.57;1.30;;;;;;;11.56;100.00;99440.72;5059049;28;20052;-73
2023/03/13 10:23:42;;;;;;;6.28;1.90;;;;;;;11.59;97.43;99435.25;5058348;28;20037;-73
2023/03/13 10:26:23;;;;;;;4.93;1.67;;;;;;;11.60;97.82;99443.03;5057696;28;20071;-73
2023/03/13 10:28:53;;;;;;;4.05;1.30;;;;;;;11.62;96.64;99435.88;5058898;28;20037;-73
2023/03/13 10:31:32;;;;;;;8.95;2.25;;;;;;;11.77;94.04;99438.41;5057837;28;20095;-73
2023/03/13 10:34:10;;;;;;;6.57;1.63;;;;;;;11.77;94.24;99441.03;5042882;28;20067;-73
2023/03/13 10:36:41;;;;;;;6.05;1.73;;;;;;;11.81;92.66;99447.78;5057772;28;20052;-73
2023/03/13 10:39:14;;;;;;;11.75;2.03;;;;;;;11.83;93.32;99430.97;5058381;28;20060;-73
2023/03/13 10:41:39;;;;;;;7.55;2.55;;;;;;;11.83;94.26;99440.66;5057959;28;20068;-73
2023/03/13 10:44:14;;;;;;;12.70;2.05;;;;;;;11.79;95.00;99426.03;5058236;28;20044;-73
2023/03/13 10:46:41;;;;;;;3.00;1.52;;;;;;;11.80;94.43;99435.59;5045326;28;20665;-73
2023/03/13 10:49:19;;;;;;;6.78;1.67;;;;;;;11.82;94.17;99425.84;5045523;28;20373;-73
2023/03/13 10:51:58;;;;;;;7.70;2.10;;;;;;;11.85;94.60;99402.03;5046244;28;20052;-73
2023/03/13 10:54:30;;;;;;;8.43;1.83;;;;;;;11.86;94.54;99406.31;5044859;28;20040;-73
2023/03/13 10:57:17;;;;;;;8.95;2.03;;;;;;;11.86;94.24;99411.56;5044692;28;20041;-73
2023/03/13 10:59:45;;;;;;;8.27;1.92;;;;;;;11.87;93.14;99413.25;5040691;28;20290;-73
2023/03/13 11:02:22;;;;;;;7.78;1.58;;;;;;;11.85;91.48;99408.09;5030602;28;20092;-73
2023/03/13 11:04:52;;;;;;;8.18;2.00;;;;;;;11.83;92.79;99427.53;5030012;28;20048;-73
2023/03/13 11:07:34;;;;;;;9.93;1.92;;;;;;;11.84;91.20;99409.06;5031080;28;20044;-73
2023/03/13 11:10:25;;;;;;;9.10;1.77;;;;;;;12.16;86.27;99428.81;5032367;28;20041;-73
2023/03/13 11:12:53;;;;;;;6.93;1.83;;;;;;;12.34;85.72;99422.25;5023066;28;20049;-73
2023/03/13 11:15:28;;;;;;;14.38;2.50;;;;;;;12.37;85.12;99435.16;5034311;28;20046;-73
2023/03/13 11:18:21;;;;;;;11.55;2.08;;;;;;;12.36;84.54;99422.16;5036824;28;20068;-73
2023/03/13 11:20:47;;;;;;;9.02;2.17;;;;;;;12.27;85.77;99421.84;5035707;28;20047;-73
2023/03/13 11:23:25;;;;;;;9.40;2.03;;;;;;;12.22;85.18;99420.50;5033997;28;20332;-73
2023/03/13 11:26:12;;;;;;;18.33;2.85;;;;;;;12.14;86.73;99439.41;5033709;28;20033;-73
2023/03/13 11:28:38;;;;;;;17.27;2.47;;;;;;;12.09;86.39;99450.19;5034029;28;20044;-73
2023/03/13 11:31:18;;;;;;;8.45;2.03;;;;;;;12.05;85.23;99426.91;5032451;28;20033;-73
2023/03/13 11:34:07;;;;;;;9.13;2.30;;;;;;;12.29;80.66;99448.81;5036750;28;20041;-73
2023/03/13 11:37:01;;;;;;;16.98;2.97;;;;;;;12.47;79.68;99432.72;5034070;28;20048;-73